Time;durP1;ratioP1;P1;durP2;ratioP2;P2;SDS_P1;SDS_P2;PMS_P1;PMS_P2;Temp;Humidity;BMP_temperature;BMP_pressure;BME280_temperature;BME280_humidity;BME280_pressure;Samples;Min_cycle;Max_cycle;Signal;HPM_P1;HPM_P2
2023/08/23 00:01:36;;;;;;;12.90;8.10;;;24.00;1.00;;;;;;5048262;28;20293;-73
2023/08/23 00:04:02;;;;;;;12.00;8.43;;;23.90;1.00;;;;;;5048780;28;20181;-72
2023/08/23 00:06:27;;;;;;;9.57;7.80;;;23.90;1.00;;;;;;5047179;28;20181;-73
2023/08/23 00:08:53;;;;;;;10.80;9.10;;;23.80;1.00;;;;;;5048758;28;20226;-73
2023/08/23 00:11:18;;;;;;;12.63;8.83;;;23.80;1.00;;;;;;5046890;28;20215;-73
2023/08/23 00:13:45;;;;;;;12.50;8.33;;;25.90;1.00;;;;;;5047829;28;20189;-72
2023/08/23 00:16:10;;;;;;;16.33;9.20;;;23.70;1.00;;;;;;5047022;28;20180;-73
2023/08/23 00:18:36;;;;;;;14.63;9.60;;;23.80;1.00;;;;;;5048718;28;20525;-73
2023/08/23 00:21:01;;;;;;;13.93;9.40;;;23.70;1.00;;;;;;5046388;28;20204;-73
2023/08/23 00:23:27;;;;;;;14.03;9.40;;;23.70;1.00;;;;;;5048867;28;20212;-73
2023/08/23 00:25:52;;;;;;;13.30;10.37;;;23.60;1.00;;;;;;5047988;28;20667;-73
2023/08/23 00:28:19;;;;;;;10.70;8.53;;;23.50;1.00;;;;;;5048689;28;20194;-73
2023/08/23 00:30:54;;;;;;;12.67;9.00;;;23.60;1.00;;;;;;5045188;28;20654;-73
2023/08/23 00:33:20;;;;;;;14.17;8.80;;;23.60;1.00;;;;;;5041897;28;20446;-73
2023/08/23 00:35:46;;;;;;;13.33;9.83;;;23.60;1.00;;;;;;5047474;28;20847;-73
2023/08/23 00:38:12;;;;;;;13.83;10.17;;;23.60;1.00;;;;;;5040541;28;20504;-73
2023/08/23 00:40:38;;;;;;;13.37;9.90;;;23.50;1.00;;;;;;5052945;28;20234;-73
2023/08/23 00:43:06;;;;;;;14.33;9.97;;;23.50;1.00;;;;;;5047801;28;20571;-72
2023/08/23 00:45:34;;;;;;;12.50;10.13;;;23.50;1.00;;;;;;5048039;28;20192;-73
2023/08/23 00:47:59;;;;;;;13.30;9.50;;;23.50;1.00;;;;;;5046300;28;21035;-74
2023/08/23 00:50:25;;;;;;;15.00;9.83;;;23.40;1.00;;;;;;5046631;28;20768;-73
2023/08/23 00:52:51;;;;;;;18.10;10.10;;;23.30;1.00;;;;;;5048586;28;20531;-73
2023/08/23 00:55:17;;;;;;;13.87;9.60;;;23.30;1.00;;;;;;5048262;28;20196;-74
2023/08/23 00:57:42;;;;;;;15.60;10.50;;;23.30;1.00;;;;;;5048247;28;20192;-73
2023/08/23 01:00:09;;;;;;;13.50;9.33;;;23.30;1.00;;;;;;5049399;28;20244;-73
2023/08/23 01:02:35;;;;;;;13.63;9.50;;;23.20;1.00;;;;;;5047024;28;20258;-73
2023/08/23 01:05:02;;;;;;;15.40;10.37;;;23.10;1.00;;;;;;5046417;28;20601;-73
2023/08/23 01:07:37;;;;;;;12.13;9.20;;;23.10;1.00;;;;;;5050016;28;20667;-74
2023/08/23 01:10:18;;;;;;;11.67;10.20;;;23.10;1.00;;;;;;5047616;28;20434;-73
2023/08/23 01:12:55;;;;;;;14.77;10.30;;;23.00;1.00;;;;;;5043819;28;20474;-73
2023/08/23 01:15:23;;;;;;;15.03;10.27;;;23.00;1.00;;;;;;5040238;28;20886;-73
2023/08/23 01:17:50;;;;;;;12.77;10.30;;;22.90;1.00;;;;;;5046238;28;20450;-73
2023/08/23 01:20:16;;;;;;;12.20;10.27;;;22.90;1.00;;;;;;5047335;28;20862;-74
2023/08/23 01:22:50;;;;;;;15.50;10.50;;;22.90;1.00;;;;;;5047172;28;20447;-72
2023/08/23 01:25:16;;;;;;;14.67;10.27;;;22.90;1.00;;;;;;5047443;28;20438;-73
2023/08/23 01:27:41;;;;;;;11.33;10.13;;;22.80;1.00;;;;;;5047204;28;20528;-73
2023/08/23 01:30:08;;;;;;;11.70;10.47;;;22.80;1.00;;;;;;5047951;28;20710;-73
2023/08/23 01:32:40;;;;;;;14.43;10.40;;;22.70;1.00;;;;;;5047317;28;20589;-73
2023/08/23 01:35:18;;;;;;;17.97;12.17;;;22.70;1.00;;;;;;5048498;28;20488;-74
2023/08/23 01:37:45;;;;;;;13.80;11.97;;;22.60;1.00;;;;;;5046300;28;20485;-74
2023/08/23 01:40:12;;;;;;;13.83;11.30;;;22.60;1.00;;;;;;5046021;28;20439;-74
2023/08/23 01:42:39;;;;;;;16.60;11.10;;;22.50;1.00;;;;;;5048446;28;20876;-73
2023/08/23 01:45:07;;;;;;;14.43;11.37;;;22.50;1.00;;;;;;5048654;28;20422;-73
2023/08/23 01:47:32;;;;;;;14.93;11.97;;;22.50;1.00;;;;;;5047668;28;20525;-73
2023/08/23 01:49:58;;;;;;;14.70;11.33;;;22.50;1.00;;;;;;5048134;28;20443;-74
2023/08/23 01:52:23;;;;;;;16.90;11.30;;;22.40;1.00;;;;;;5047478;28;20579;-73
2023/08/23 01:54:49;;;;;;;14.57;11.70;;;22.30;1.00;;;;;;5047541;28;20731;-73
2023/08/23 01:57:15;;;;;;;14.60;12.17;;;22.20;1.00;;;;;;5047689;28;20601;-74
2023/08/23 01:59:40;;;;;;;15.70;12.90;;;22.20;1.00;;;;;;5048718;28;20184;-73
2023/08/23 02:02:06;;;;;;;19.53;11.43;;;22.10;1.00;;;;;;5046112;28;20220;-73
2023/08/23 02:04:31;;;;;;;16.80;12.30;;;22.10;1.00;;;;;;5048143;28;20177;-74
2023/08/23 02:06:57;;;;;;;17.17;12.63;;;22.10;1.00;;;;;;5045095;28;20181;-73
2023/08/23 02:09:22;;;;;;;17.37;12.57;;;22.10;1.00;;;;;;5048053;28;20851;-73
2023/08/23 02:11:48;;;;;;;14.37;12.60;;;22.10;1.00;;;;;;5047593;28;20675;-73
2023/08/23 02:14:13;;;;;;;14.40;12.90;;;22.10;1.00;;;;;;5047798;28;20208;-73
2023/08/23 02:16:39;;;;;;;16.27;12.10;;;22.10;1.00;;;;;;5047411;28;20290;-72
2023/08/23 02:19:04;;;;;;;14.87;12.60;;;22.10;1.00;;;;;;5047685;28;20183;-73
2023/08/23 02:21:30;;;;;;;14.80;12.10;;;22.10;1.00;;;;;;5046812;28;20256;-73
2023/08/23 02:23:55;;;;;;;17.20;12.33;;;22.10;1.00;;;;;;5047759;28;20216;-73
2023/08/23 02:26:21;;;;;;;15.67;12.03;;;22.10;1.00;;;;;;5048155;28;20216;-73
2023/08/23 02:28:46;;;;;;;14.80;12.00;;;22.10;1.00;;;;;;5048235;28;20679;-73
2023/08/23 02:31:12;;;;;;;15.63;11.87;;;22.00;1.00;;;;;;5046351;28;20751;-73
2023/08/23 02:33:37;;;;;;;13.20;11.80;;;22.00;1.00;;;;;;5047720;28;20207;-73
2023/08/23 02:36:03;;;;;;;13.40;11.43;;;22.10;1.00;;;;;;5045987;28;20185;-74
2023/08/23 02:38:29;;;;;;;14.03;11.83;;;22.10;1.00;;;;;;5047862;28;20189;-73
2023/08/23 02:40:55;;;;;;;15.40;12.20;;;22.10;1.00;;;;;;5047805;28;20223;-73
2023/08/23 02:43:21;;;;;;;14.40;12.10;;;22.10;1.00;;;;;;5048099;28;20192;-73
2023/08/23 02:45:47;;;;;;;13.30;11.40;;;22.10;1.00;;;;;;5044817;28;20441;-72
2023/08/23 02:48:13;;;;;;;13.30;11.40;;;22.10;1.00;;;;;;5045158;28;20435;-73
2023/08/23 02:50:38;;;;;;;16.93;12.07;;;22.00;1.00;;;;;;5046711;28;20663;-73
2023/08/23 02:53:04;;;;;;;17.23;11.40;;;22.00;1.00;;;;;;5045116;28;20741;-73
2023/08/23 02:55:29;;;;;;;16.73;12.17;;;22.00;1.00;;;;;;5048128;28;20220;-73
2023/08/23 02:57:55;;;;;;;14.67;12.13;;;22.10;1.00;;;;;;5049076;28;20195;-73
2023/08/23 03:00:21;;;;;;;15.20;12.93;;;22.10;1.00;;;;;;5047246;28;20192;-73
2023/08/23 03:02:46;;;;;;;20.13;12.10;;;22.00;1.00;;;;;;5048314;28;20208;-72
2023/08/23 03:05:11;;;;;;;15.00;12.57;;;22.00;1.00;;;;;;5048378;28;20267;-74
2023/08/23 03:07:37;;;;;;;18.27;11.90;;;22.00;1.00;;;;;;5049520;28;20231;-73
2023/08/23 03:10:03;;;;;;;17.40;12.20;;;22.00;1.00;;;;;;5049862;28;20184;-73
2023/08/23 03:12:28;;;;;;;16.03;13.17;;;22.00;1.00;;;;;;5048952;28;20867;-73
2023/08/23 03:14:54;;;;;;;14.00;12.20;;;21.90;1.00;;;;;;5049646;28;20181;-73
2023/08/23 03:17:19;;;;;;;14.87;12.00;;;21.80;1.00;;;;;;5047767;28;20197;-73
2023/08/23 03:19:45;;;;;;;16.97;12.60;;;21.80;1.00;;;;;;5050089;28;20691;-72
2023/08/23 03:22:10;;;;;;;14.13;12.60;;;21.80;1.00;;;;;;5048842;28;20299;-73
2023/08/23 03:24:36;;;;;;;17.70;13.03;;;21.70;1.00;;;;;;5047138;28;20189;-73
2023/08/23 03:27:01;;;;;;;17.93;12.17;;;21.70;1.00;;;;;;5048537;28;20508;-73
2023/08/23 03:29:26;;;;;;;17.27;12.67;;;21.60;1.00;;;;;;5048494;28;20175;-73
2023/08/23 03:31:52;;;;;;;16.77;12.27;;;21.60;1.00;;;;;;5047550;28;20638;-74
2023/08/23 03:34:18;;;;;;;16.33;12.10;;;21.60;1.00;;;;;;5048118;28;20180;-73
2023/08/23 03:36:43;;;;;;;20.57;12.03;;;21.60;1.00;;;;;;5047685;28;20195;-73
2023/08/23 03:39:09;;;;;;;15.23;12.20;;;21.60;1.00;;;;;;5048807;28;20291;-73
2023/08/23 03:41:34;;;;;;;19.73;13.10;;;21.50;1.00;;;;;;5048973;28;20654;-72
2023/08/23 03:44:00;;;;;;;15.63;13.40;;;21.50;1.00;;;;;;5048398;28;20290;-72
2023/08/23 03:46:25;;;;;;;18.73;14.60;;;21.50;1.00;;;;;;5045921;28;20185;-73
2023/08/23 03:48:52;;;;;;;16.80;13.67;;;21.40;1.00;;;;;;5048462;28;20180;-72
2023/08/23 03:51:17;;;;;;;20.30;13.70;;;21.30;1.00;;;;;;5046471;28;20201;-72
2023/08/23 03:53:43;;;;;;;15.00;12.60;;;21.40;1.00;;;;;;5048692;28;20870;-73
2023/08/23 03:56:09;;;;;;;19.03;13.33;;;21.40;1.00;;;;;;5047775;28;20560;-73
2023/08/23 03:58:35;;;;;;;15.40;13.73;;;21.30;1.00;;;;;;5048914;28;20219;-73
2023/08/23 04:01:00;;;;;;;18.63;13.17;;;21.20;1.00;;;;;;5046458;28;20214;-74
2023/08/23 04:03:26;;;;;;;15.47;13.80;;;21.20;1.00;;;;;;5048282;28;20903;-73
2023/08/23 04:05:51;;;;;;;18.30;12.40;;;21.30;1.00;;;;;;5047134;28;20180;-73
2023/08/23 04:08:17;;;;;;;19.50;13.33;;;21.20;1.00;;;;;;5047792;28;20521;-73
2023/08/23 04:10:50;;;;;;;17.20;14.17;;;21.20;1.00;;;;;;5047057;28;20257;-73
2023/08/23 04:13:16;;;;;;;15.30;13.70;;;21.20;1.00;;;;;;5046062;28;20204;-73
2023/08/23 04:15:46;;;;;;;19.00;13.83;;;21.20;1.00;;;;;;5047952;28;20949;-73
2023/08/23 04:18:11;;;;;;;23.73;14.80;;;21.20;1.00;;;;;;5059747;28;20486;-72
2023/08/23 04:20:38;;;;;;;16.80;14.60;;;21.20;1.00;;;;;;5048268;28;20447;-73
2023/08/23 04:23:05;;;;;;;18.17;14.97;;;21.20;1.00;;;;;;5047031;28;20200;-73
2023/08/23 04:25:30;;;;;;;17.57;13.70;;;21.20;1.00;;;;;;5048364;28;20435;-72
2023/08/23 04:27:56;;;;;;;16.27;14.57;;;21.20;1.00;;;;;;5048439;28;20552;-73
2023/08/23 04:30:21;;;;;;;16.60;14.37;;;21.20;1.00;;;;;;5047525;28;20270;-72
2023/08/23 04:32:47;;;;;;;18.83;15.50;;;21.10;1.00;;;;;;5043846;28;20212;-72
2023/08/23 04:35:12;;;;;;;17.57;15.07;;;21.20;1.00;;;;;;5046393;28;20193;-73
2023/08/23 04:37:38;;;;;;;18.40;15.97;;;21.20;1.00;;;;;;5048046;28;20189;-73
2023/08/23 04:40:07;;;;;;;18.30;15.77;;;21.20;1.00;;;;;;5046151;28;20180;-73
2023/08/23 04:42:33;;;;;;;19.70;16.73;;;21.20;1.00;;;;;;5048128;28;20212;-73
2023/08/23 04:45:01;;;;;;;20.43;17.20;;;21.10;1.00;;;;;;5047664;28;20446;-72
2023/08/23 04:47:28;;;;;;;19.30;17.10;;;21.10;1.00;;;;;;5046599;28;20180;-72
2023/08/23 04:49:54;;;;;;;19.90;17.87;;;21.10;1.00;;;;;;5047590;28;20530;-72
2023/08/23 04:52:20;;;;;;;21.70;17.40;;;21.10;1.00;;;;;;5046121;28;20545;-73
2023/08/23 04:54:46;;;;;;;19.10;17.17;;;21.00;1.00;;;;;;5048095;28;20446;-73
2023/08/23 04:57:11;;;;;;;19.93;17.47;;;21.00;1.00;;;;;;5046158;28;20195;-73
2023/08/23 04:59:37;;;;;;;20.33;16.50;;;21.00;1.00;;;;;;5047343;28;20529;-73
2023/08/23 05:02:02;;;;;;;20.73;16.60;;;21.00;1.00;;;;;;5044785;28;20698;-73
2023/08/23 05:04:28;;;;;;;18.70;16.53;;;21.00;1.00;;;;;;5044984;28;20238;-72
2023/08/23 05:06:53;;;;;;;17.87;15.43;;;20.90;1.00;;;;;;5047963;28;20641;-73
2023/08/23 05:09:19;;;;;;;20.23;15.70;;;21.00;1.00;;;;;;5047001;28;20242;-73
2023/08/23 05:11:44;;;;;;;20.90;15.80;;;21.00;1.00;;;;;;5046127;28;20204;-73
2023/08/23 05:14:10;;;;;;;18.97;14.60;;;21.10;1.00;;;;;;5047872;28;20273;-74
2023/08/23 05:16:35;;;;;;;18.80;14.93;;;21.20;1.00;;;;;;5045275;28;20188;-73
2023/08/23 05:19:01;;;;;;;17.80;15.33;;;21.30;1.00;;;;;;5046424;28;20192;-72
2023/08/23 05:21:26;;;;;;;18.53;15.90;;;21.30;1.00;;;;;;5046533;28;20216;-72
2023/08/23 05:23:52;;;;;;;19.50;14.37;;;21.40;1.00;;;;;;5047232;28;20185;-74
2023/08/23 05:26:17;;;;;;;15.57;13.03;;;23.50;1.00;;;;;;5038253;28;20181;-73
2023/08/23 05:28:43;;;;;;;18.70;13.80;;;21.30;1.00;;;;;;5044044;28;20208;-72
2023/08/23 05:31:09;;;;;;;17.92;13.27;;;21.20;1.00;;;;;;5044510;28;20926;-73
2023/08/23 05:33:35;;;;;;;16.97;14.30;;;21.20;1.00;;;;;;5043812;28;20195;-74
2023/08/23 05:36:00;;;;;;;20.03;15.23;;;21.20;1.00;;;;;;5046580;28;21482;-75
2023/08/23 05:38:28;;;;;;;20.10;14.10;;;21.20;1.00;;;;;;5050709;28;20184;-75
2023/08/23 05:40:54;;;;;;;20.40;13.90;;;21.40;1.00;;;;;;5048022;28;20223;-74
2023/08/23 05:43:19;;;;;;;19.70;15.13;;;21.40;1.00;;;;;;5051537;28;20904;-75
2023/08/23 05:45:45;;;;;;;19.60;15.63;;;21.40;1.00;;;;;;5049362;28;20675;-75
2023/08/23 05:48:10;;;;;;;18.90;15.33;;;21.40;1.00;;;;;;5047763;28;20543;-76
2023/08/23 05:50:36;;;;;;;19.63;16.03;;;21.50;1.00;;;;;;5047892;28;20606;-74
2023/08/23 05:53:09;;;;;;;18.50;16.07;;;21.20;1.00;;;;;;5047666;28;20235;-74
2023/08/23 05:55:35;;;;;;;19.80;15.70;;;21.30;1.00;;;;;;5048564;28;20559;-74
2023/08/23 05:58:01;;;;;;;28.20;16.00;;;21.50;1.00;;;;;;5049245;28;20431;-75
2023/08/23 06:00:26;;;;;;;17.10;15.00;;;21.70;1.00;;;;;;5046893;28;20566;-74
2023/08/23 06:02:52;;;;;;;18.10;16.20;;;21.70;1.00;;;;;;5046653;28;20270;-76
2023/08/23 06:05:17;;;;;;;17.60;15.80;;;21.70;1.00;;;;;;5050221;28;20184;-75
2023/08/23 06:07:43;;;;;;;23.53;16.20;;;21.70;1.00;;;;;;5048981;28;20183;-76
2023/08/23 06:10:10;;;;;;;20.97;16.50;;;21.70;1.00;;;;;;5049120;28;20172;-75
2023/08/23 06:12:35;;;;;;;18.97;16.30;;;21.80;1.00;;;;;;5048422;28;20278;-76
2023/08/23 06:15:01;;;;;;;19.00;15.57;;;21.90;1.00;;;;;;5043289;28;20985;-75
2023/08/23 06:17:28;;;;;;;19.30;16.17;;;22.10;1.00;;;;;;5055228;28;20265;-75
2023/08/23 06:19:53;;;;;;;17.63;15.80;;;22.20;1.00;;;;;;5046279;28;20563;-75
2023/08/23 06:22:19;;;;;;;18.73;16.00;;;22.20;1.00;;;;;;5043995;28;20462;-75
2023/08/23 06:24:45;;;;;;;18.23;15.23;;;22.30;1.00;;;;;;5045891;28;20196;-75
2023/08/23 06:27:10;;;;;;;17.43;14.50;;;22.50;1.00;;;;;;5043661;28;20187;-74
2023/08/23 06:29:39;;;;;;;17.70;14.20;;;22.60;1.00;;;;;;5049518;28;20199;-74
2023/08/23 06:32:05;;;;;;;16.20;13.37;;;22.90;1.00;;;;;;5047236;28;20211;-75
2023/08/23 06:34:30;;;;;;;20.10;15.60;;;23.10;1.00;;;;;;5050514;28;20841;-75
2023/08/23 06:36:56;;;;;;;17.40;13.97;;;23.20;1.00;;;;;;5051070;28;20235;-75
2023/08/23 06:39:21;;;;;;;18.67;14.60;;;25.80;1.00;;;;;;5048927;28;20200;-74
2023/08/23 06:41:47;;;;;;;17.23;13.97;;;23.40;1.00;;;;;;5050947;28;20686;-76
2023/08/23 06:44:12;;;;;;;15.03;12.53;;;23.50;1.00;;;;;;5050584;28;20602;-75
2023/08/23 06:46:38;;;;;;;14.13;12.50;;;23.60;1.00;;;;;;5048002;28;20196;-75
2023/08/23 06:49:04;;;;;;;17.37;14.43;;;23.80;1.00;;;;;;5050046;28;20254;-74
2023/08/23 06:51:30;;;;;;;14.27;11.90;;;24.00;1.00;;;;;;5047252;28;20208;-75
2023/08/23 06:53:56;;;;;;;13.47;12.17;;;24.10;1.00;;;;;;5050222;28;20450;-75
2023/08/23 06:56:22;;;;;;;16.37;13.20;;;24.20;1.00;;;;;;5049684;28;20481;-76
2023/08/23 06:58:47;;;;;;;14.33;12.93;;;24.40;1.00;;;;;;5041039;28;20688;-75
2023/08/23 07:01:16;;;;;;;18.73;12.30;;;24.40;1.00;;;;;;5046661;28;20204;-74
2023/08/23 07:03:43;;;;;;;16.33;13.00;;;24.50;1.00;;;;;;5048487;28;20176;-75
2023/08/23 07:06:13;;;;;;;16.97;12.70;;;24.50;1.00;;;;;;5048342;28;20481;-75
2023/08/23 07:08:40;;;;;;;16.93;12.80;;;24.70;1.00;;;;;;5044979;28;20436;-73
2023/08/23 07:11:05;;;;;;;13.13;11.70;;;24.90;1.00;;;;;;5043008;28;20446;-75
2023/08/23 07:13:31;;;;;;;14.60;11.97;;;24.90;1.00;;;;;;5045534;28;20447;-73
2023/08/23 07:15:56;;;;;;;13.90;11.57;;;25.00;1.00;;;;;;5044759;28;20179;-75
2023/08/23 07:18:22;;;;;;;16.87;12.50;;;25.10;1.00;;;;;;5045501;28;20183;-75
2023/08/23 07:20:47;;;;;;;16.13;13.43;;;25.40;1.00;;;;;;5047806;28;20208;-74
2023/08/23 07:23:13;;;;;;;17.77;13.87;;;25.50;1.00;;;;;;5045294;28;20246;-75
2023/08/23 07:25:39;;;;;;;14.80;13.20;;;25.50;1.00;;;;;;5048547;28;20189;-75
2023/08/23 07:28:04;;;;;;;15.57;12.00;;;25.60;1.00;;;;;;5040452;28;20289;-75
2023/08/23 07:30:30;;;;;;;15.83;11.63;;;25.70;1.00;;;;;;5046198;28;20242;-75
2023/08/23 07:32:56;;;;;;;18.40;12.23;;;26.40;1.00;;;;;;5048536;28;20192;-75
2023/08/23 07:35:22;;;;;;;16.30;13.50;;;26.10;1.00;;;;;;5046612;28;20169;-74
2023/08/23 07:37:47;;;;;;;19.10;12.40;;;26.20;1.00;;;;;;5046982;28;20438;-75
2023/08/23 07:40:13;;;;;;;15.40;11.30;;;26.30;1.00;;;;;;5042891;28;20184;-74
2023/08/23 07:42:39;;;;;;;16.80;12.63;;;26.60;1.00;;;;;;5045481;28;20702;-74
2023/08/23 07:45:05;;;;;;;17.80;12.00;;;27.00;1.00;;;;;;5048444;28;20547;-75
2023/08/23 07:47:31;;;;;;;14.07;10.30;;;27.60;1.00;;;;;;5044924;28;20458;-76
2023/08/23 07:49:56;;;;;;;12.27;9.73;;;28.80;1.00;;;;;;5047375;28;20172;-74
2023/08/23 07:52:22;;;;;;;14.23;10.30;;;29.90;1.00;;;;;;5047100;28;20231;-76
2023/08/23 07:54:47;;;;;;;15.90;10.48;;;30.90;1.00;;;;;;5048112;28;20206;-76
2023/08/23 07:57:13;;;;;;;12.05;8.75;;;31.60;1.00;;;;;;5046990;28;20408;-76
2023/08/23 07:59:39;;;;;;;9.95;8.63;;;32.20;1.00;;;;;;5047422;28;20600;-75
2023/08/23 08:02:04;;;;;;;12.40;8.02;;;32.70;1.00;;;;;;5046470;28;20223;-77
2023/08/23 08:04:31;;;;;;;11.90;8.27;;;33.10;1.00;;;;;;5048003;28;20180;-75
2023/08/23 08:06:57;;;;;;;11.02;8.82;;;33.60;1.00;;;;;;5049106;28;20735;-75
2023/08/23 08:09:22;;;;;;;14.25;8.40;;;34.30;1.00;;;;;;5047200;28;20203;-76
2023/08/23 08:11:48;;;;;;;16.25;7.90;;;34.70;1.00;;;;;;5048480;28;20570;-75
2023/08/23 08:14:14;;;;;;;14.93;8.48;;;35.20;1.00;;;;;;5047476;28;20245;-77
2023/08/23 08:16:39;;;;;;;12.88;7.88;;;34.50;1.00;;;;;;5063927;28;20176;-76
2023/08/23 08:19:05;;;;;;;12.57;7.63;;;35.50;1.00;;;;;;5056455;28;20188;-77
2023/08/23 08:21:30;;;;;;;16.60;7.70;;;36.10;1.00;;;;;;5057063;28;20242;-76
2023/08/23 08:23:56;;;;;;;13.35;6.55;;;36.60;1.00;;;;;;5050780;28;20521;-76
2023/08/23 08:26:23;;;;;;;13.23;6.68;;;37.10;1.00;;;;;;5044529;28;20242;-76
2023/08/23 08:28:48;;;;;;;10.38;6.22;;;37.30;1.00;;;;;;5050107;28;20250;-77
2023/08/23 08:31:14;;;;;;;9.63;6.55;;;37.50;1.00;;;;;;5049674;28;20200;-79
2023/08/23 08:33:39;;;;;;;11.52;6.88;;;37.60;1.00;;;;;;5056202;28;20651;-77
2023/08/23 08:36:05;;;;;;;12.30;6.85;;;37.70;1.00;;;;;;5050170;28;20340;-76
2023/08/23 08:38:30;;;;;;;10.63;6.13;;;37.80;1.00;;;;;;5048994;28;20177;-76
2023/08/23 08:40:56;;;;;;;10.57;5.88;;;37.70;1.00;;;;;;5049402;28;20254;-76
2023/08/23 08:43:22;;;;;;;16.38;6.57;;;37.70;1.00;;;;;;5050320;28;20176;-76
2023/08/23 08:45:48;;;;;;;9.02;5.93;;;38.20;1.00;;;;;;5051036;28;20265;-77
2023/08/23 08:48:14;;;;;;;9.27;6.32;;;38.70;1.00;;;;;;5049555;28;20578;-77
2023/08/23 08:50:43;;;;;;;11.80;6.57;;;38.70;1.00;;;;;;5047594;28;20179;-76
2023/08/23 08:53:13;;;;;;;9.23;6.30;;;38.60;1.00;;;;;;5048295;28;20209;-76
2023/08/23 08:55:40;;;;;;;12.63;6.75;;;38.60;1.00;;;;;;5047371;28;20720;-76
2023/08/23 08:58:06;;;;;;;10.23;6.07;;;38.80;1.00;;;;;;5047154;28;20542;-77
2023/08/23 09:00:34;;;;;;;8.90;6.60;;;38.80;1.00;;;;;;5047646;28;20712;-76
2023/08/23 09:03:00;;;;;;;11.43;6.10;;;38.60;1.00;;;;;;5046826;28;20208;-75
2023/08/23 09:05:26;;;;;;;9.80;6.57;;;38.30;1.00;;;;;;5046683;28;20563;-77
2023/08/23 09:07:53;;;;;;;9.57;6.07;;;38.20;1.00;;;;;;5044282;28;20835;-76
2023/08/23 09:10:19;;;;;;;10.18;6.20;;;38.80;1.00;;;;;;5045537;28;20200;-77
2023/08/23 09:12:45;;;;;;;14.07;5.70;;;39.80;1.00;;;;;;5045483;28;20291;-77
2023/08/23 09:15:10;;;;;;;7.30;5.18;;;39.80;1.00;;;;;;5046311;28;20375;-78
2023/08/23 09:17:36;;;;;;;8.48;5.13;;;40.30;1.00;;;;;;5042926;28;20176;-77
2023/08/23 09:20:09;;;;;;;6.32;4.90;;;40.50;1.00;;;;;;5046452;28;20599;-77
2023/08/23 09:22:35;;;;;;;10.30;5.40;;;40.90;1.00;;;;;;5046679;28;20212;-79
2023/08/23 09:25:05;;;;;;;9.48;5.43;;;41.00;1.00;;;;;;5045892;28;20287;-78
2023/08/23 09:27:31;;;;;;;10.30;5.65;;;41.00;1.00;;;;;;5048796;28;20245;-78
2023/08/23 09:29:59;;;;;;;6.45;4.72;;;41.20;1.00;;;;;;5047024;28;20181;-77
2023/08/23 09:32:27;;;;;;;7.75;5.47;;;41.50;1.00;;;;;;5044612;28;20192;-79
2023/08/23 09:34:53;;;;;;;9.02;4.97;;;41.70;1.00;;;;;;5047290;28;20188;-77
2023/08/23 09:37:19;;;;;;;9.93;5.10;;;41.60;1.00;;;;;;5048303;28;20188;-77
2023/08/23 09:39:45;;;;;;;9.00;5.13;;;41.70;1.00;;;;;;5043619;28;20238;-77
2023/08/23 09:42:14;;;;;;;9.75;5.40;;;41.90;1.00;;;;;;5048116;28;20220;-77
2023/08/23 09:44:43;;;;;;;9.70;4.82;;;42.20;1.00;;;;;;5047115;28;20671;-76
2023/08/23 09:47:14;;;;;;;5.88;4.30;;;41.90;1.00;;;;;;5045921;28;20187;-78
2023/08/23 09:49:42;;;;;;;9.25;4.40;;;41.60;1.00;;;;;;5045494;28;20248;-76
2023/08/23 09:52:10;;;;;;;9.30;4.78;;;42.00;1.00;;;;;;5047884;28;20211;-76
2023/08/23 09:54:41;;;;;;;7.57;4.80;;;42.40;1.00;;;;;;5046663;28;20177;-76
2023/08/23 09:57:07;;;;;;;10.93;5.80;;;42.70;1.00;;;;;;5045828;28;20180;-76
2023/08/23 09:59:33;;;;;;;6.97;4.07;;;43.10;1.00;;;;;;5048727;28;20645;-77
2023/08/23 10:02:01;;;;;;;10.95;4.32;;;43.50;1.00;;;;;;5046073;28;20333;-78
2023/08/23 10:04:27;;;;;;;8.18;4.60;;;43.50;1.00;;;;;;5050718;28;20195;-76
2023/08/23 10:06:53;;;;;;;6.63;4.22;;;43.50;1.00;;;;;;5048117;28;20677;-76
2023/08/23 10:09:21;;;;;;;9.80;4.32;;;42.70;1.00;;;;;;5051447;28;20263;-75
2023/08/23 10:11:48;;;;;;;8.00;4.22;;;42.90;1.00;;;;;;5047262;28;20220;-77
2023/08/23 10:14:14;;;;;;;7.53;3.90;;;43.00;1.00;;;;;;5043717;28;20621;-76
2023/08/23 10:16:41;;;;;;;7.00;4.22;;;43.00;1.00;;;;;;5050359;28;20600;-78
2023/08/23 10:19:07;;;;;;;11.90;4.20;;;42.70;1.00;;;;;;5047284;28;20176;-77
2023/08/23 10:21:33;;;;;;;9.85;4.40;;;43.00;1.00;;;;;;5051252;28;20208;-76
2023/08/23 10:24:03;;;;;;;13.85;4.55;;;43.40;1.00;;;;;;5050523;28;20199;-76
2023/08/23 10:26:29;;;;;;;6.15;3.90;;;43.90;1.00;;;;;;5047155;28;20700;-77
2023/08/23 10:28:54;;;;;;;6.30;4.22;;;44.40;1.00;;;;;;5050269;28;20183;-78
2023/08/23 10:31:27;;;;;;;9.77;4.38;;;45.00;1.00;;;;;;5050450;28;20232;-77
2023/08/23 10:33:54;;;;;;;8.20;4.20;;;45.40;1.00;;;;;;5050576;28;20173;-78
2023/08/23 10:36:27;;;;;;;8.25;4.40;;;45.10;1.00;;;;;;5050011;28;20192;-78
2023/08/23 10:38:57;;;;;;;11.18;4.20;;;44.60;1.00;;;;;;5065265;28;20241;-78
2023/08/23 10:41:24;;;;;;;8.60;4.30;;;44.20;1.00;;;;;;5050812;28;20220;-78
2023/08/23 10:43:50;;;;;;;8.73;6.40;;;43.50;1.00;;;;;;5035569;28;21704;-77
2023/08/23 10:46:18;;;;;;;8.40;4.72;;;43.40;1.00;;;;;;5049008;28;20177;-78
2023/08/23 10:48:45;;;;;;;6.47;4.32;;;44.10;1.00;;;;;;5047746;28;20212;-78
2023/08/23 10:51:11;;;;;;;8.93;4.20;;;44.20;1.00;;;;;;5048092;28;20208;-78
2023/08/23 10:53:37;;;;;;;7.85;4.00;;;44.30;1.00;;;;;;5049253;28;20231;-76
2023/08/23 10:56:03;;;;;;;9.35;4.05;;;44.90;1.00;;;;;;5050234;28;20188;-77
2023/08/23 10:58:30;;;;;;;6.88;3.67;;;45.50;1.00;;;;;;5046966;28;20220;-78
2023/08/23 11:00:56;;;;;;;6.60;4.20;;;46.60;1.00;;;;;;5048885;28;20200;-77
2023/08/23 11:03:22;;;;;;;6.10;3.88;;;46.60;1.00;;;;;;5049971;28;20188;-77
2023/08/23 11:05:47;;;;;;;4.82;3.47;;;46.00;1.00;;;;;;5048183;28;20184;-78
2023/08/23 11:08:13;;;;;;;5.28;3.92;;;46.20;1.00;;;;;;5050671;28;20654;-77
2023/08/23 11:10:40;;;;;;;6.05;4.05;;;46.50;1.00;;;;;;5051596;28;20184;-78
2023/08/23 11:13:06;;;;;;;8.10;3.65;;;47.00;1.00;;;;;;5049687;28;20212;-78
2023/08/23 11:15:33;;;;;;;6.85;3.50;;;47.10;1.00;;;;;;5049538;28;20187;-76
2023/08/23 11:18:00;;;;;;;7.13;3.80;;;47.40;1.00;;;;;;5047640;28;20183;-77
2023/08/23 11:20:26;;;;;;;8.38;3.95;;;47.40;1.00;;;;;;5047349;28;20559;-77
2023/08/23 11:22:51;;;;;;;5.55;3.67;;;47.60;1.00;;;;;;5051928;28;20212;-78
2023/08/23 11:25:17;;;;;;;8.35;4.15;;;47.20;1.00;;;;;;5051025;28;20259;-78
2023/08/23 11:27:42;;;;;;;4.90;3.60;;;47.20;1.00;;;;;;5050195;28;20177;-77
2023/08/23 11:30:08;;;;;;;10.05;4.40;;;46.90;1.00;;;;;;5052204;28;20181;-78
2023/08/23 11:32:35;;;;;;;12.68;3.80;;;46.90;1.00;;;;;;5047767;28;20196;-78
2023/08/23 11:35:04;;;;;;;9.93;4.10;;;46.80;1.00;;;;;;5049675;28;20291;-77
2023/08/23 11:37:29;;;;;;;6.28;4.00;;;46.80;1.00;;;;;;5051106;28;20233;-79
2023/08/23 11:40:00;;;;;;;6.82;3.90;;;46.60;1.00;;;;;;5048002;28;20189;-78
2023/08/23 11:42:26;;;;;;;12.38;3.72;;;47.20;1.00;;;;;;5049729;28;20767;-77
2023/08/23 11:44:55;;;;;;;4.80;3.90;;;47.60;1.00;;;;;;5049093;28;20279;-78
2023/08/23 11:47:27;;;;;;;6.63;3.67;;;47.90;1.00;;;;;;5042661;28;20188;-79
2023/08/23 11:49:52;;;;;;;6.03;3.53;;;48.00;1.00;;;;;;5049712;28;20555;-78
2023/08/23 11:52:18;;;;;;;5.70;3.55;;;48.00;1.00;;;;;;5048255;28;20208;-78
2023/08/23 11:54:44;;;;;;;8.80;3.90;;;48.00;1.00;;;;;;5045790;28;20199;-77
2023/08/23 11:57:15;;;;;;;7.18;3.75;;;47.90;1.00;;;;;;5046518;28;20195;-79
2023/08/23 11:59:41;;;;;;;9.05;3.78;;;48.10;1.00;;;;;;5046763;28;20187;-78
2023/08/23 12:02:07;;;;;;;7.22;3.80;;;48.20;1.00;;;;;;5048588;28;20213;-78
2023/08/23 12:04:32;;;;;;;12.75;3.45;;;48.30;1.00;;;;;;5046277;28;20188;-78
2023/08/23 12:06:58;;;;;;;5.70;3.50;;;48.10;1.00;;;;;;5048397;28;20181;-78
2023/08/23 12:09:25;;;;;;;4.38;3.30;;;48.20;1.00;;;;;;5046302;28;20207;-76
2023/08/23 12:11:52;;;;;;;8.80;3.78;;;48.50;1.00;;;;;;5040311;28;20292;-78
2023/08/23 12:14:18;;;;;;;5.88;3.45;;;48.90;1.00;;;;;;5045589;28;20651;-78
2023/08/23 12:16:44;;;;;;;5.63;3.42;;;48.30;1.00;;;;;;5045380;28;20184;-77
2023/08/23 12:19:09;;;;;;;5.93;3.78;;;48.30;1.00;;;;;;5047164;28;20677;-78
2023/08/23 12:21:35;;;;;;;6.38;3.65;;;47.90;1.00;;;;;;5046616;28;20287;-78
2023/08/23 12:24:01;;;;;;;9.43;3.75;;;47.90;1.00;;;;;;5045107;28;20201;-78
2023/08/23 12:26:26;;;;;;;6.07;3.40;;;47.60;1.00;;;;;;5044435;28;20581;-77
2023/08/23 12:28:52;;;;;;;4.82;2.97;;;47.60;1.00;;;;;;5046976;28;20559;-77
2023/08/23 12:31:19;;;;;;;5.93;3.60;;;47.40;1.00;;;;;;5046876;28;20679;-77
2023/08/23 12:33:45;;;;;;;6.82;3.40;;;46.70;1.00;;;;;;5045383;28;20189;-77
2023/08/23 12:36:12;;;;;;;8.63;3.92;;;46.90;1.00;;;;;;5046423;28;20273;-78
2023/08/23 12:38:38;;;;;;;7.57;3.88;;;47.30;1.00;;;;;;5039975;28;20536;-78